LFLB/CMF METAR and TAF weather

Enter ICAO airport designator
Station Type Date Time Source
LFLB METAR 2023/02/06 19:00 UTC NOAA

LFLB 061900Z AUTO 03008KT 9999 OVC043 06/M01 Q1030 NOSIG


Station Type Date Time Source
LFLB Decoded METAR 2023/02/06 19:00 UTC NOAA

Chambery / Aix-Les-Bains, France (LFLB) 45-39N 005-53E 239M
Feb 06, 2023 - 02:00 PM EST / 2023.02.06 1900 UTC
Wind: from the NNE (030 degrees) at 9 MPH (8 KT):0
Visibility: greater than 7 mile(s):0
Sky conditions: overcast
Temperature: 42 F (6 C)
Dew Point: 30 F (-1 C)
Relative Humidity: 60%
Pressure (altimeter): 30.42 in. Hg (1030 hPa)
ob: LFLB 061900Z AUTO 03008KT 9999 OVC043 06/M01 Q1030 NOSIG
cycle: 19

Station Type Date Time Source
LFLB TAF 2023/02/06 15:26 UTC NOAA

TAF LFLB 061400Z 0615/0715 36012KT 9999 OVC030 PROB30
TEMPO 0702/0706 -SN
BECMG 0708/0710 CAVOK

Example: see airport list